Time;durP1;ratioP1;P1;durP2;ratioP2;P2;SDS_P1;SDS_P2;PMS_P1;PMS_P2;Temp;Humidity;BMP_temperature;BMP_pressure;BME280_temperature;BME280_humidity;BME280_pressure;Samples;Min_cycle;Max_cycle;Signal;HPM_P1;HPM_P2
2022/12/01 00:00:55;;;;;;;39.10;21.08;;;6.50;99.90;;;;;;4954165;28;20063;-48
2022/12/01 00:03:21;;;;;;;37.47;19.35;;;6.50;99.90;;;;;;4953147;28;20066;-50
2022/12/01 00:05:56;;;;;;;37.70;19.50;;;6.50;99.90;;;;;;4953736;28;20066;-51
2022/12/01 00:08:21;;;;;;;38.30;19.00;;;6.50;99.90;;;;;;4953599;28;20028;-52
2022/12/01 00:10:47;;;;;;;34.35;18.52;;;6.50;99.90;;;;;;4953886;28;20114;-52
2022/12/01 00:13:12;;;;;;;29.48;17.70;;;6.40;99.90;;;;;;4953080;28;20033;-50
2022/12/01 00:15:38;;;;;;;33.17;18.42;;;6.40;99.90;;;;;;4953409;28;20038;-51
2022/12/01 00:18:04;;;;;;;34.55;19.15;;;6.40;99.90;;;;;;4953641;28;20031;-47
2022/12/01 00:20:32;;;;;;;38.88;19.80;;;6.30;99.90;;;;;;4954076;28;20087;-49
2022/12/01 00:22:58;;;;;;;38.22;19.30;;;6.30;99.90;;;;;;4953312;28;20440;-48
2022/12/01 00:25:23;;;;;;;39.47;20.75;;;6.30;99.90;;;;;;4954083;28;20033;-50
2022/12/01 00:27:50;;;;;;;40.72;21.08;;;6.40;99.90;;;;;;4954260;28;20090;-51
2022/12/01 00:30:18;;;;;;;42.63;22.02;;;6.40;99.90;;;;;;4954756;28;20055;-49
2022/12/01 00:32:44;;;;;;;49.42;21.98;;;6.40;99.90;;;;;;4967824;28;20027;-46
2022/12/01 00:35:10;;;;;;;46.78;22.35;;;6.40;99.90;;;;;;4953791;28;20042;-53
2022/12/01 00:37:36;;;;;;;40.35;22.52;;;6.30;99.90;;;;;;4953369;28;20024;-51
2022/12/01 00:40:02;;;;;;;44.72;22.48;;;6.20;99.90;;;;;;4953703;28;20136;-50
2022/12/01 00:42:29;;;;;;;69.07;40.45;;;6.10;99.90;;;;;;4954955;28;20023;-53
2022/12/01 00:44:54;;;;;;;42.22;22.75;;;6.10;99.90;;;;;;4962115;28;20121;-50
2022/12/01 00:47:20;;;;;;;45.50;22.15;;;6.10;99.90;;;;;;4953590;28;20055;-51
2022/12/01 00:49:45;;;;;;;41.75;20.90;;;6.00;99.90;;;;;;4951816;28;20595;-53
2022/12/01 00:52:12;;;;;;;45.15;22.58;;;6.00;99.90;;;;;;4952628;28;20119;-51
2022/12/01 00:54:38;;;;;;;41.13;22.25;;;6.00;99.90;;;;;;4980763;23;20125;-53
2022/12/01 00:57:04;;;;;;;37.50;21.45;;;6.00;99.90;;;;;;4992209;28;20470;-51
2022/12/01 00:59:29;;;;;;;48.10;23.23;;;5.90;99.90;;;;;;5009854;28;20398;-51
2022/12/01 01:01:55;;;;;;;35.90;21.20;;;5.80;99.90;;;;;;4994987;28;20027;-50
2022/12/01 01:04:20;;;;;;;43.80;21.83;;;5.60;99.90;;;;;;4995564;28;20033;-52
2022/12/01 01:06:46;;;;;;;42.17;22.23;;;5.70;99.90;;;;;;4995335;28;20026;-50
2022/12/01 01:09:12;;;;;;;53.45;23.60;;;5.80;99.90;;;;;;5010579;28;20076;-51
2022/12/01 01:11:38;;;;;;;42.30;23.45;;;5.80;99.90;;;;;;5010386;28;20064;-48
2022/12/01 01:14:04;;;;;;;46.85;23.65;;;5.70;99.90;;;;;;4994627;28;20406;-49
2022/12/01 01:16:30;;;;;;;47.95;23.60;;;5.70;99.90;;;;;;4995218;28;20402;-51
2022/12/01 01:18:57;;;;;;;43.75;22.10;;;5.70;99.90;;;;;;5010336;28;20379;-53
2022/12/01 01:21:23;;;;;;;45.13;22.63;;;5.60;99.90;;;;;;4995132;28;20098;-53
2022/12/01 01:23:50;;;;;;;47.70;24.08;;;5.60;99.90;;;;;;4994521;28;20029;-52
2022/12/01 01:26:18;;;;;;;46.85;23.88;;;5.70;99.90;;;;;;4994991;28;20031;-50
2022/12/01 01:28:45;;;;;;;44.28;24.05;;;5.70;99.90;;;;;;4995066;28;20030;-49
2022/12/01 01:31:13;;;;;;;42.33;22.30;;;5.70;99.90;;;;;;5010382;28;20027;-51
2022/12/01 01:33:39;;;;;;;43.45;22.17;;;5.70;99.90;;;;;;4994605;28;20114;-52
2022/12/01 01:36:05;;;;;;;42.05;23.10;;;5.70;99.90;;;;;;5011045;28;20121;-50
2022/12/01 01:38:32;;;;;;;40.47;22.20;;;5.70;99.90;;;;;;4994854;28;20445;-52
2022/12/01 01:40:58;;;;;;;43.30;24.58;;;5.80;99.90;;;;;;4993776;28;20026;-51
2022/12/01 01:43:49;;;;;;;41.45;21.38;;;5.80;99.90;;;;;;4992676;28;20409;-52
2022/12/01 01:46:41;;;;;;;46.17;23.42;;;5.80;99.90;;;;;;4994677;28;20516;-53
2022/12/01 01:49:13;;;;;;;44.67;22.13;;;5.90;99.90;;;;;;4990964;28;20038;-48
2022/12/01 01:51:49;;;;;;;37.80;21.58;;;5.90;99.90;;;;;;4994557;28;20037;-51
2022/12/01 01:54:31;;;;;;;43.00;22.42;;;5.90;99.90;;;;;;5008981;28;20378;-50
2022/12/01 01:57:00;;;;;;;39.38;21.65;;;5.90;99.90;;;;;;4994371;28;20402;-52
2022/12/01 01:59:30;;;;;;;41.67;23.05;;;5.90;99.90;;;;;;5009910;28;20122;-50
2022/12/01 02:02:05;;;;;;;37.80;20.77;;;5.90;99.90;;;;;;4993691;28;20033;-49
2022/12/01 02:04:33;;;;;;;37.42;21.13;;;6.00;99.90;;;;;;4993244;28;21675;-51
2022/12/01 02:06:59;;;;;;;35.92;20.55;;;6.00;99.90;;;;;;4994307;28;20118;-50
2022/12/01 02:09:25;;;;;;;33.25;19.42;;;6.10;99.90;;;;;;4994284;28;20353;-51
2022/12/01 02:12:16;;;;;;;37.97;19.30;;;5.90;99.90;;;;;;4993987;28;20035;-49
2022/12/01 02:15:08;;;;;;;40.17;20.02;;;5.80;99.90;;;;;;4994268;28;20195;-49
2022/12/01 02:17:45;;;;;;;38.72;21.98;;;5.70;99.90;;;;;;4992237;28;20066;-50
2022/12/01 02:20:45;;;;;;;41.00;21.35;;;5.70;99.90;;;;;;4994100;28;20073;-48
2022/12/01 02:23:25;;;;;;;36.53;20.25;;;5.70;99.90;;;;;;4993755;28;20019;-53
2022/12/01 02:26:21;;;;;;;39.90;21.05;;;5.70;99.90;;;;;;4993977;28;20026;-49
2022/12/01 02:29:08;;;;;;;37.07;21.77;;;5.60;99.90;;;;;;4992592;28;20137;-49
2022/12/01 02:31:52;;;;;;;43.60;23.08;;;5.70;99.90;;;;;;4993816;28;20615;-54
2022/12/01 02:34:36;;;;;;;39.95;22.65;;;5.70;99.90;;;;;;4993467;28;20414;-50
2022/12/01 02:37:13;;;;;;;37.58;22.63;;;5.60;99.90;;;;;;5008791;28;20401;-50
2022/12/01 02:39:50;;;;;;;40.13;23.20;;;5.60;99.90;;;;;;4993800;28;20030;-51
2022/12/01 02:42:48;;;;;;;41.83;23.40;;;5.60;99.90;;;;;;4993030;28;20498;-52
2022/12/01 02:45:21;;;;;;;43.47;23.10;;;5.50;99.90;;;;;;4994035;28;20039;-53
2022/12/01 02:47:48;;;;;;;39.10;23.02;;;5.60;99.90;;;;;;4991829;28;20101;-49
2022/12/01 02:50:14;;;;;;;40.50;23.05;;;5.60;99.90;;;;;;4993643;28;20134;-52
2022/12/01 02:52:41;;;;;;;45.58;23.30;;;5.60;99.90;;;;;;4992814;28;20465;-50
2022/12/01 02:55:07;;;;;;;43.85;24.83;;;5.50;99.90;;;;;;4993405;28;20088;-53
2022/12/01 02:57:32;;;;;;;38.60;22.25;;;5.60;99.90;;;;;;4993242;28;20022;-53
2022/12/01 02:59:59;;;;;;;41.63;22.45;;;5.60;99.90;;;;;;5008351;28;20110;-51
2022/12/01 03:02:26;;;;;;;43.05;22.15;;;5.60;99.90;;;;;;4992530;28;20379;-51
2022/12/01 03:05:25;;;;;;;39.35;22.85;;;5.60;99.90;;;;;;4993203;28;20026;-49
2022/12/01 03:08:15;;;;;;;43.72;22.25;;;5.60;99.90;;;;;;4992516;28;20042;-48
2022/12/01 03:10:47;;;;;;;45.85;23.73;;;5.60;99.90;;;;;;4993104;28;20050;-52
2022/12/01 03:13:40;;;;;;;39.97;22.48;;;5.60;99.90;;;;;;4992253;28;20101;-51
2022/12/01 03:16:11;;;;;;;42.97;25.05;;;5.60;99.90;;;;;;4993001;28;20026;-52
2022/12/01 03:19:06;;;;;;;44.70;23.45;;;5.60;99.90;;;;;;4992975;28;20041;-53
2022/12/01 03:21:48;;;;;;;42.97;23.80;;;5.60;99.90;;;;;;4992331;28;20023;-50
2022/12/01 03:24:18;;;;;;;41.45;21.77;;;5.60;99.90;;;;;;4992438;28;20032;-49
2022/12/01 03:26:47;;;;;;;40.95;22.30;;;5.60;99.90;;;;;;4992795;28;20069;-51
2022/12/01 03:29:19;;;;;;;39.72;23.48;;;5.60;99.90;;;;;;4992802;28;20026;-51
2022/12/01 03:31:49;;;;;;;42.03;22.63;;;5.60;99.90;;;;;;4992612;28;20027;-49
2022/12/01 03:34:39;;;;;;;40.42;22.92;;;5.60;99.90;;;;;;4992326;28;20076;-51
2022/12/01 03:37:21;;;;;;;38.95;21.52;;;5.50;99.90;;;;;;4992695;28;20033;-48
2022/12/01 03:39:48;;;;;;;42.13;24.33;;;5.50;99.90;;;;;;4992420;28;20390;-48
2022/12/01 03:42:26;;;;;;;36.75;22.98;;;5.40;99.90;;;;;;4991911;28;20148;-49
2022/12/01 03:44:55;;;;;;;42.17;24.13;;;5.50;99.90;;;;;;4992442;28;20113;-52
2022/12/01 03:47:31;;;;;;;39.65;23.13;;;5.40;99.90;;;;;;4992409;28;20034;-51
2022/12/01 03:49:59;;;;;;;;;;;5.50;99.90;;;;;;4992749;28;20105;-52
2022/12/01 03:52:29;;;;;;;44.08;24.58;;;5.50;99.90;;;;;;4990579;28;20012;-48
2022/12/01 03:55:18;;;;;;;41.47;24.75;;;5.50;99.90;;;;;;4992136;28;20411;-51
2022/12/01 03:58:03;;;;;;;42.33;22.85;;;5.50;99.90;;;;;;4992424;28;20486;-49
2022/12/01 04:00:30;;;;;;;33.83;19.70;;;5.60;99.90;;;;;;4992368;28;20060;-50
2022/12/01 04:03:01;;;;;;;40.00;22.00;;;5.60;99.90;;;;;;4991595;28;20413;-49
2022/12/01 04:05:27;;;;;;;36.70;22.00;;;5.50;99.90;;;;;;4992109;28;20384;-49
2022/12/01 04:07:53;;;;;;;40.13;23.50;;;5.40;99.90;;;;;;4992345;28;20038;-50
2022/12/01 04:10:18;;;;;;;36.30;20.38;;;5.40;99.90;;;;;;4990776;28;20030;-50
2022/12/01 04:12:44;;;;;;;36.70;22.33;;;5.40;99.90;;;;;;4991642;28;20121;-52
2022/12/01 04:15:11;;;;;;;42.42;21.98;;;5.40;99.90;;;;;;4991973;28;20053;-52
2022/12/01 04:17:38;;;;;;;35.35;22.08;;;5.40;99.90;;;;;;4992164;28;20077;-47
2022/12/01 04:20:05;;;;;;;39.17;21.70;;;5.30;99.90;;;;;;4992186;28;20026;-49
2022/12/01 04:22:31;;;;;;;37.00;22.10;;;5.30;99.90;;;;;;4991777;28;20510;-49
2022/12/01 04:24:57;;;;;;;45.42;23.67;;;5.30;99.90;;;;;;4991929;28;20070;-52
2022/12/01 04:27:23;;;;;;;38.08;22.38;;;5.30;99.90;;;;;;4992033;28;20058;-53
2022/12/01 04:29:48;;;;;;;40.00;22.38;;;5.20;99.90;;;;;;4991903;28;20049;-53
2022/12/01 04:32:14;;;;;;;39.42;22.58;;;5.20;99.90;;;;;;4991737;28;20033;-53
2022/12/01 04:34:39;;;;;;;38.03;23.33;;;5.20;99.90;;;;;;4995980;28;20026;-50
2022/12/01 04:37:06;;;;;;;43.63;23.38;;;5.20;99.90;;;;;;4996025;28;20026;-50
2022/12/01 04:39:32;;;;;;;42.78;22.85;;;5.20;99.90;;;;;;5010890;28;20517;-49
2022/12/01 04:41:57;;;;;;;38.92;22.90;;;5.20;99.90;;;;;;4995251;28;20062;-51
2022/12/01 04:44:23;;;;;;;37.17;21.27;;;5.20;99.90;;;;;;4996149;28;20038;-49
2022/12/01 04:46:51;;;;;;;37.42;21.63;;;5.20;99.90;;;;;;5011099;28;20053;-46
2022/12/01 04:49:16;;;;;;;41.35;22.73;;;5.20;99.90;;;;;;4996013;28;20057;-52
2022/12/01 04:51:42;;;;;;;40.00;21.65;;;5.20;99.90;;;;;;4996296;28;20062;-51
2022/12/01 04:54:07;;;;;;;42.75;23.88;;;5.20;99.90;;;;;;4994786;28;20498;-50
2022/12/01 04:56:33;;;;;;;43.53;24.23;;;5.20;99.90;;;;;;4995530;28;20042;-51
2022/12/01 04:58:58;;;;;;;41.30;22.63;;;5.30;99.90;;;;;;4995613;28;20031;-48
2022/12/01 05:01:24;;;;;;;41.17;22.92;;;5.30;99.90;;;;;;4995695;28;20029;-53
2022/12/01 05:03:50;;;;;;;38.92;22.35;;;5.40;99.90;;;;;;4994949;28;20522;-50
2022/12/01 05:06:18;;;;;;;38.60;22.08;;;5.40;99.90;;;;;;4995477;28;20541;-49
2022/12/01 05:08:43;;;;;;;44.30;23.48;;;5.50;99.90;;;;;;4995440;28;20041;-50
2022/12/01 05:11:11;;;;;;;39.88;23.38;;;5.50;99.90;;;;;;4996474;28;20030;-51
2022/12/01 05:13:41;;;;;;;41.15;23.27;;;5.40;99.90;;;;;;4995295;28;20026;-48
2022/12/01 05:16:11;;;;;;;46.85;25.17;;;5.40;99.90;;;;;;4995500;28;20449;-49
2022/12/01 05:18:37;;;;;;;48.08;24.17;;;5.40;99.90;;;;;;5013051;28;20022;-50
2022/12/01 05:21:05;;;;;;;46.47;24.52;;;5.40;99.90;;;;;;4997837;28;20019;-49
2022/12/01 05:23:33;;;;;;;43.65;23.65;;;5.40;99.90;;;;;;4998095;28;20402;-50
2022/12/01 05:25:59;;;;;;;46.38;23.77;;;5.40;99.90;;;;;;4997765;28;20030;-47
2022/12/01 05:28:25;;;;;;;40.10;23.30;;;5.30;99.90;;;;;;4995887;28;20036;-51
2022/12/01 05:30:53;;;;;;;40.50;23.70;;;5.30;99.90;;;;;;4995137;28;20490;-48
2022/12/01 05:33:19;;;;;;;41.58;22.33;;;5.30;99.90;;;;;;4994387;28;20027;-50
2022/12/01 05:35:46;;;;;;;36.72;23.23;;;5.40;99.90;;;;;;4994909;28;20034;-49
2022/12/01 05:38:12;;;;;;;43.45;23.10;;;5.40;99.90;;;;;;5009928;28;20080;-51
2022/12/01 05:40:37;;;;;;;39.47;21.48;;;5.30;99.90;;;;;;4994992;28;20098;-52
2022/12/01 05:43:04;;;;;;;41.08;22.92;;;5.30;99.90;;;;;;4995092;28;20038;-51
2022/12/01 05:45:30;;;;;;;41.35;22.67;;;5.20;99.90;;;;;;5010394;28;20049;-52
2022/12/01 05:48:00;;;;;;;39.40;21.88;;;5.20;99.90;;;;;;4992965;28;20030;-51
2022/12/01 05:50:27;;;;;;;41.75;22.83;;;5.20;99.90;;;;;;5009746;28;20022;-52
2022/12/01 05:52:53;;;;;;;36.17;21.90;;;5.20;99.90;;;;;;4993582;28;20030;-48
2022/12/01 05:55:18;;;;;;;41.05;22.83;;;5.20;99.90;;;;;;4994265;28;20113;-47
2022/12/01 05:57:44;;;;;;;34.17;20.58;;;5.20;99.90;;;;;;4993143;28;20046;-53
2022/12/01 06:00:11;;;;;;;36.45;21.20;;;5.20;99.90;;;;;;4994260;28;20517;-51
2022/12/01 06:02:38;;;;;;;36.97;21.45;;;5.20;99.90;;;;;;4993751;28;20110;-48
2022/12/01 06:05:04;;;;;;;38.85;21.92;;;5.10;99.90;;;;;;4993861;28;20510;-52
2022/12/01 06:07:29;;;;;;;35.63;20.98;;;5.10;99.90;;;;;;5009305;28;20060;-53
2022/12/01 06:09:55;;;;;;;38.30;21.77;;;5.10;99.90;;;;;;5009232;28;20418;-52
2022/12/01 06:12:20;;;;;;;43.85;22.17;;;5.10;99.90;;;;;;4993668;28;20026;-52
2022/12/01 06:14:46;;;;;;;33.38;19.50;;;5.10;99.90;;;;;;4994078;28;20033;-53
2022/12/01 06:17:11;;;;;;;42.45;21.92;;;5.10;99.90;;;;;;4994060;28;20033;-55
2022/12/01 06:19:38;;;;;;;38.88;20.30;;;5.10;99.90;;;;;;4994214;28;20114;-48
2022/12/01 06:22:03;;;;;;;36.92;21.92;;;5.10;99.90;;;;;;4993209;28;20049;-48
2022/12/01 06:24:29;;;;;;;36.53;20.10;;;5.10;99.90;;;;;;4994092;28;20022;-52
2022/12/01 06:26:54;;;;;;;39.72;21.48;;;5.10;99.90;;;;;;4993804;28;20022;-54
2022/12/01 06:29:20;;;;;;;36.03;21.05;;;5.00;99.90;;;;;;4993888;28;20084;-50
2022/12/01 06:31:45;;;;;;;34.72;19.73;;;5.10;99.90;;;;;;4994513;28;20049;-49
2022/12/01 06:34:11;;;;;;;29.63;17.53;;;5.10;99.90;;;;;;4993832;28;20026;-50
2022/12/01 06:36:37;;;;;;;39.42;19.73;;;5.20;99.90;;;;;;4993483;28;20073;-51
2022/12/01 06:39:08;;;;;;;32.58;18.45;;;5.10;99.90;;;;;;4992575;28;20023;-48
2022/12/01 06:41:33;;;;;;;33.60;17.83;;;5.10;99.90;;;;;;4994018;28;20033;-46
2022/12/01 06:44:00;;;;;;;37.38;20.50;;;5.10;99.90;;;;;;4992901;28;20406;-50
2022/12/01 06:46:25;;;;;;;33.28;19.30;;;5.10;99.90;;;;;;4993419;28;20503;-51
2022/12/01 06:48:51;;;;;;;29.83;18.73;;;5.10;99.90;;;;;;4992537;28;20113;-52
2022/12/01 06:51:17;;;;;;;31.83;18.70;;;5.10;99.90;;;;;;4993365;28;20027;-46
2022/12/01 06:53:43;;;;;;;34.10;18.92;;;5.10;99.90;;;;;;4992499;28;20026;-50
2022/12/01 06:56:08;;;;;;;34.17;17.67;;;5.10;99.90;;;;;;4993286;28;20070;-51
2022/12/01 06:58:34;;;;;;;36.20;19.73;;;5.10;99.90;;;;;;4993364;28;20029;-53
2022/12/01 07:00:59;;;;;;;34.03;19.50;;;5.10;99.90;;;;;;4993303;28;20082;-51
2022/12/01 07:03:25;;;;;;;36.63;18.45;;;5.00;99.90;;;;;;4992594;28;20022;-46
2022/12/01 07:05:59;;;;;;;30.00;17.02;;;5.00;99.90;;;;;;4992929;28;20102;-46
2022/12/01 07:08:29;;;;;;;30.05;18.73;;;5.00;99.90;;;;;;4992982;28;20121;-54
2022/12/01 07:11:03;;;;;;;37.83;20.95;;;4.90;99.90;;;;;;4993871;28;20030;-51
2022/12/01 07:13:29;;;;;;;39.28;20.33;;;4.90;99.90;;;;;;4992612;28;20434;-55
2022/12/01 07:15:55;;;;;;;34.92;19.65;;;4.90;99.90;;;;;;4992920;28;20026;-55
2022/12/01 07:18:21;;;;;;;34.40;19.75;;;4.80;99.90;;;;;;4993143;28;20050;-53
2022/12/01 07:20:46;;;;;;;32.90;17.38;;;4.90;99.90;;;;;;4993426;28;20026;-49
2022/12/01 07:23:12;;;;;;;28.83;18.48;;;4.80;99.90;;;;;;4992611;28;20029;-50
2022/12/01 07:25:38;;;;;;;32.60;17.33;;;4.80;99.90;;;;;;4993032;28;20053;-52
2022/12/01 07:28:03;;;;;;;30.08;16.92;;;4.70;99.90;;;;;;4992888;28;20106;-51
2022/12/01 07:30:29;;;;;;;33.35;16.73;;;4.70;99.90;;;;;;4993051;28;20483;-51
2022/12/01 07:32:54;;;;;;;30.50;17.60;;;4.70;99.90;;;;;;4991986;28;20198;-49
2022/12/01 07:35:20;;;;;;;30.70;16.45;;;4.70;99.90;;;;;;4992531;28;20479;-52
2022/12/01 07:37:46;;;;;;;23.98;14.23;;;4.70;99.90;;;;;;4992665;28;20030;-51
2022/12/01 07:40:11;;;;;;;29.67;17.23;;;4.60;99.90;;;;;;4992637;28;20058;-49
2022/12/01 07:42:41;;;;;;;28.80;15.90;;;4.60;99.90;;;;;;4991912;28;20068;-52
2022/12/01 07:45:07;;;;;;;27.90;15.80;;;4.60;99.90;;;;;;4992453;28;20089;-52
2022/12/01 07:47:32;;;;;;;25.70;16.52;;;4.60;99.90;;;;;;4992542;28;20030;-53
2022/12/01 07:49:58;;;;;;;26.08;15.73;;;4.60;99.90;;;;;;4990731;28;20113;-52
2022/12/01 07:52:23;;;;;;;24.80;14.90;;;4.60;99.90;;;;;;4991772;28;20032;-50
2022/12/01 07:54:49;;;;;;;24.88;14.63;;;4.60;99.90;;;;;;4992139;28;20117;-53
2022/12/01 07:57:14;;;;;;;22.98;14.20;;;4.60;99.90;;;;;;4992217;28;20093;-53
2022/12/01 07:59:40;;;;;;;28.25;16.05;;;4.60;99.90;;;;;;4992378;28;20442;-48
2022/12/01 08:02:07;;;;;;;26.75;15.13;;;4.60;99.90;;;;;;4991527;28;20488;-46
2022/12/01 08:04:33;;;;;;;28.50;15.52;;;4.50;99.90;;;;;;5007277;28;20026;-54
2022/12/01 08:06:58;;;;;;;25.05;15.25;;;4.50;99.90;;;;;;4992164;28;20053;-50
2022/12/01 08:09:24;;;;;;;24.90;15.80;;;4.50;99.90;;;;;;4992260;28;20026;-51
2022/12/01 08:11:50;;;;;;;25.63;14.38;;;4.50;99.90;;;;;;4991975;28;20034;-48
2022/12/01 08:14:15;;;;;;;23.33;14.43;;;4.50;99.90;;;;;;4991644;28;20073;-49
2022/12/01 08:16:41;;;;;;;22.00;13.88;;;4.60;99.90;;;;;;4992067;28;20022;-48
2022/12/01 08:19:09;;;;;;;24.55;15.13;;;4.60;99.90;;;;;;5007012;28;20026;-50
2022/12/01 08:21:36;;;;;;;32.45;16.55;;;4.60;99.90;;;;;;4993544;28;20414;-52
2022/12/01 08:24:02;;;;;;;25.17;14.77;;;4.60;99.90;;;;;;4992017;28;20022;-49
2022/12/01 08:26:28;;;;;;;27.38;16.85;;;4.70;99.90;;;;;;4991853;28;20027;-49
2022/12/01 08:28:54;;;;;;;22.08;13.70;;;4.70;99.90;;;;;;4992097;28;20030;-52
2022/12/01 08:31:23;;;;;;;22.90;14.68;;;4.70;99.90;;;;;;4991917;28;20398;-53
2022/12/01 08:33:49;;;;;;;27.70;16.17;;;4.80;99.90;;;;;;5006227;28;20031;-48
2022/12/01 08:36:16;;;;;;;32.42;16.58;;;4.80;99.90;;;;;;4991439;28;20027;-48
2022/12/01 08:38:43;;;;;;;26.90;15.15;;;4.80;99.90;;;;;;4992023;28;20031;-52
2022/12/01 08:41:09;;;;;;;27.33;16.20;;;4.80;99.90;;;;;;4991954;28;20018;-51
2022/12/01 08:43:38;;;;;;;28.95;15.48;;;4.80;99.90;;;;;;4991134;28;20018;-51
2022/12/01 08:46:05;;;;;;;24.67;15.75;;;4.80;99.90;;;;;;4991918;28;20018;-52
2022/12/01 08:48:30;;;;;;;22.90;14.05;;;4.80;99.90;;;;;;4990941;28;20033;-52
2022/12/01 08:51:02;;;;;;;19.30;13.00;;;4.80;99.90;;;;;;4992272;28;20031;-52
2022/12/01 08:53:27;;;;;;;26.23;14.93;;;4.80;99.90;;;;;;4991988;28;20171;-51
2022/12/01 08:55:53;;;;;;;27.08;14.80;;;4.80;99.90;;;;;;4991919;28;20034;-49
2022/12/01 08:58:18;;;;;;;22.55;13.88;;;4.80;99.90;;;;;;4992178;28;20033;-48
2022/12/01 09:00:44;;;;;;;28.88;15.15;;;4.90;99.90;;;;;;5006877;28;20022;-54
2022/12/01 09:03:09;;;;;;;23.92;14.25;;;4.90;99.90;;;;;;4991363;28;20076;-47
2022/12/01 09:05:35;;;;;;;24.02;14.15;;;4.80;99.90;;;;;;4992617;28;20110;-49
2022/12/01 09:11:08;;;;;;;25.77;14.20;;;4.80;99.90;;;;;;4989785;28;20065;-53
2022/12/01 09:13:35;;;;;;;23.95;14.15;;;4.90;99.90;;;;;;4991708;28;20035;-52
2022/12/01 09:16:04;;;;;;;21.88;14.05;;;4.90;99.90;;;;;;4987538;28;20038;-53
2022/12/01 09:18:30;;;;;;;24.42;14.23;;;4.80;99.90;;;;;;4991651;28;20113;-52
2022/12/01 09:20:57;;;;;;;26.20;15.63;;;4.80;99.90;;;;;;4994259;28;20041;-50
2022/12/01 09:23:23;;;;;;;30.70;16.50;;;4.70;99.90;;;;;;4988124;28;20391;-53
2022/12/01 09:25:50;;;;;;;27.13;16.23;;;4.80;99.90;;;;;;4983887;28;20023;-51
2022/12/01 09:28:19;;;;;;;25.50;14.35;;;4.80;99.90;;;;;;4986370;28;20475;-52
2022/12/01 09:30:46;;;;;;;26.35;15.43;;;4.80;99.90;;;;;;4984510;28;20022;-50
2022/12/01 09:33:12;;;;;;;24.48;15.02;;;4.80;99.90;;;;;;4994133;28;20030;-49
2022/12/01 09:35:37;;;;;;;22.95;14.27;;;4.90;99.90;;;;;;4995032;28;20622;-55
2022/12/01 09:38:03;;;;;;;25.52;13.63;;;5.00;99.90;;;;;;4995101;28;20101;-57
2022/12/01 09:40:41;;;;;;;21.25;13.77;;;5.00;99.90;;;;;;4995404;28;20121;-55
2022/12/01 09:43:18;;;;;;;22.77;13.18;;;5.00;99.90;;;;;;4994356;28;20390;-57
2022/12/01 09:45:50;;;;;;;20.98;13.40;;;5.00;99.90;;;;;;4995600;28;20026;-54
2022/12/01 09:48:24;;;;;;;27.80;14.57;;;5.00;99.90;;;;;;4994899;28;20209;-49
2022/12/01 09:50:50;;;;;;;21.20;14.15;;;5.10;99.90;;;;;;4994368;28;20060;-52
2022/12/01 09:53:20;;;;;;;20.77;13.10;;;5.20;99.90;;;;;;4994238;28;20081;-54
2022/12/01 09:55:46;;;;;;;19.23;12.75;;;5.30;99.90;;;;;;4994726;28;20030;-52
2022/12/01 09:58:18;;;;;;;22.83;14.10;;;5.40;99.90;;;;;;4995122;28;20371;-56
2022/12/01 10:00:45;;;;;;;22.08;12.82;;;5.40;99.90;;;;;;4995055;28;20065;-54
2022/12/01 10:03:22;;;;;;;19.27;12.63;;;5.40;99.90;;;;;;4994046;28;20060;-55
2022/12/01 10:05:50;;;;;;;17.52;12.40;;;5.50;99.90;;;;;;4994522;28;20030;-53
2022/12/01 10:08:20;;;;;;;20.98;12.95;;;5.60;99.90;;;;;;4994742;28;20026;-52
2022/12/01 10:10:48;;;;;;;25.98;16.80;;;5.70;99.90;;;;;;4994421;28;20030;-52
2022/12/01 10:13:26;;;;;;;25.42;15.68;;;5.70;99.90;;;;;;4993361;28;20564;-50
2022/12/01 10:16:17;;;;;;;20.02;12.90;;;5.80;99.90;;;;;;4993998;28;20038;-45
2022/12/01 10:18:57;;;;;;;19.17;12.57;;;5.90;99.90;;;;;;4994488;28;20142;-47
2022/12/01 10:21:41;;;;;;;17.70;11.27;;;6.00;99.90;;;;;;4994168;28;20029;-48
2022/12/01 10:24:15;;;;;;;17.17;11.70;;;6.10;99.90;;;;;;4993409;28;20427;-51
2022/12/01 10:27:04;;;;;;;19.33;12.15;;;6.00;99.90;;;;;;4994064;28;20031;-51
2022/12/01 10:29:48;;;;;;;17.50;11.38;;;6.00;99.90;;;;;;4994023;28;20022;-52
2022/12/01 10:32:19;;;;;;;19.38;11.20;;;6.00;99.90;;;;;;4992842;28;20031;-50
2022/12/01 10:34:46;;;;;;;17.95;11.65;;;6.10;99.90;;;;;;4992902;28;20033;-48
2022/12/01 10:37:23;;;;;;;18.38;11.10;;;6.00;99.90;;;;;;4988989;28;20033;-52
2022/12/01 10:39:50;;;;;;;18.70;12.25;;;5.90;99.90;;;;;;4993474;28;20018;-49
2022/12/01 10:42:39;;;;;;;18.05;10.63;;;5.90;99.90;;;;;;4984675;28;20022;-48
2022/12/01 10:45:12;;;;;;;19.17;12.55;;;6.10;99.90;;;;;;4993540;28;20030;-51
2022/12/01 10:48:17;;;;;;;18.98;11.95;;;6.10;99.90;;;;;;5016089;28;20116;-51
2022/12/01 10:50:53;;;;;;;16.52;10.80;;;6.00;99.90;;;;;;5013187;28;20037;-50
2022/12/01 10:53:39;;;;;;;17.92;11.63;;;6.00;99.90;;;;;;4992764;28;20030;-52
2022/12/01 10:56:07;;;;;;;18.83;11.65;;;6.00;99.90;;;;;;4973511;28;20050;-50
2022/12/01 10:58:47;;;;;;;16.85;11.00;;;6.00;99.90;;;;;;4973787;28;20057;-52
2022/12/01 11:01:34;;;;;;;18.92;12.27;;;6.20;99.90;;;;;;4974223;28;20107;-49
2022/12/01 11:04:22;;;;;;;21.63;11.98;;;6.20;99.90;;;;;;4983804;28;20022;-54
2022/12/01 11:06:49;;;;;;;16.70;11.35;;;6.10;99.90;;;;;;5012732;28;20542;-52
2022/12/01 11:09:22;;;;;;;17.58;11.35;;;6.10;99.90;;;;;;4995505;28;20110;-51
2022/12/01 11:11:57;;;;;;;19.42;11.27;;;6.10;99.90;;;;;;4993105;28;20033;-52
2022/12/01 11:14:39;;;;;;;;;;;6.10;99.90;;;;;;4993158;28;20030;-51
2022/12/01 11:17:31;;;;;;;22.02;12.77;;;6.00;99.90;;;;;;4991045;28;20378;-50
2022/12/01 11:19:57;;;;;;;20.10;12.05;;;6.00;99.90;;;;;;4998998;28;20502;-52
2022/12/01 11:22:31;;;;;;;20.00;12.63;;;6.00;99.90;;;;;;4992597;28;20430;-53
2022/12/01 11:24:59;;;;;;;26.92;13.73;;;6.10;99.90;;;;;;4993325;28;20025;-52
2022/12/01 11:27:35;;;;;;;22.50;12.68;;;6.10;99.90;;;;;;4988747;28;20598;-49
2022/12/01 11:30:05;;;;;;;23.13;13.68;;;6.10;99.90;;;;;;5008224;28;20031;-53
2022/12/01 11:32:37;;;;;;;21.77;14.27;;;6.10;99.90;;;;;;4991056;28;20435;-50
2022/12/01 11:35:18;;;;;;;22.35;12.93;;;6.00;99.90;;;;;;4992734;28;20077;-52
2022/12/01 11:37:53;;;;;;;22.85;14.40;;;6.10;99.90;;;;;;4992454;28;20022;-53
2022/12/01 11:40:25;;;;;;;21.42;13.05;;;6.00;99.90;;;;;;4992713;28;20406;-55
2022/12/01 11:42:57;;;;;;;20.63;13.13;;;5.90;99.90;;;;;;4987282;28;20054;-53
2022/12/01 11:45:36;;;;;;;23.30;14.25;;;5.80;99.90;;;;;;5006287;28;20026;-56
2022/12/01 11:48:06;;;;;;;24.17;14.77;;;5.80;99.90;;;;;;4992447;28;20026;-55
2022/12/01 11:50:38;;;;;;;23.85;14.27;;;5.90;99.90;;;;;;4992396;28;20401;-52
2022/12/01 11:53:23;;;;;;;23.92;14.25;;;5.90;99.90;;;;;;4991754;28;20094;-49
2022/12/01 11:55:49;;;;;;;24.30;14.10;;;5.80;99.90;;;;;;4992451;28;20069;-48
2022/12/01 11:58:14;;;;;;;26.35;14.45;;;5.80;99.90;;;;;;4993098;28;20061;-52
2022/12/01 12:00:48;;;;;;;24.70;14.18;;;5.90;99.90;;;;;;4993525;28;20030;-51
2022/12/01 12:03:26;;;;;;;25.58;15.43;;;5.80;99.90;;;;;;4992299;28;20037;-50
2022/12/01 12:06:14;;;;;;;31.23;16.83;;;5.90;99.90;;;;;;4992387;28;20248;-51
2022/12/01 12:08:58;;;;;;;25.85;15.65;;;6.00;99.90;;;;;;4992477;28;20094;-50
2022/12/01 12:11:48;;;;;;;26.38;15.63;;;6.00;99.90;;;;;;4992373;28;20030;-50
2022/12/01 12:14:53;;;;;;;25.80;15.30;;;6.00;99.90;;;;;;4991853;28;20449;-54
2022/12/01 12:17:37;;;;;;;33.63;15.23;;;6.00;99.90;;;;;;4961473;28;20038;-51
2022/12/01 12:20:36;;;;;;;23.10;14.18;;;5.90;99.90;;;;;;4991977;28;20034;-48
2022/12/01 12:23:39;;;;;;;29.10;16.77;;;5.90;99.90;;;;;;4983547;28;20030;-46
2022/12/01 12:26:21;;;;;;;32.53;17.00;;;5.90;99.90;;;;;;4987546;28;20505;-48
2022/12/01 12:29:04;;;;;;;29.60;16.15;;;6.00;99.90;;;;;;5001584;28;20121;-46
2022/12/01 12:31:37;;;;;;;29.52;17.55;;;6.00;99.90;;;;;;4989433;28;20029;-52
2022/12/01 12:34:36;;;;;;;29.25;17.48;;;6.10;99.90;;;;;;4986550;28;20125;-57
2022/12/01 12:37:11;;;;;;;26.48;16.00;;;6.20;99.90;;;;;;4986537;28;20049;-50
2022/12/01 12:39:51;;;;;;;28.90;17.42;;;6.20;99.90;;;;;;4988850;28;20140;-54
2022/12/01 12:43:02;;;;;;;31.58;17.08;;;6.30;99.90;;;;;;4982247;28;20118;-51
2022/12/01 12:46:03;;;;;;;29.80;17.70;;;6.20;99.90;;;;;;4988450;28;20104;-56
2022/12/01 12:48:50;;;;;;;29.15;17.48;;;6.10;99.90;;;;;;4988239;28;20026;-52
2022/12/01 12:51:41;;;;;;;32.30;17.55;;;6.20;99.90;;;;;;4989739;28;20033;-57
2022/12/01 12:54:27;;;;;;;28.70;16.88;;;6.20;99.90;;;;;;4987005;28;20031;-53
2022/12/01 12:56:59;;;;;;;32.45;18.23;;;6.30;99.90;;;;;;5009883;23;20042;-47
2022/12/01 12:59:43;;;;;;;28.17;17.55;;;6.20;99.90;;;;;;5008738;28;20034;-50
2022/12/01 13:02:14;;;;;;;94.30;49.20;;;6.20;99.90;;;;;;4995009;28;20030;-46